Terminal Aerodrome Forecast
Issued by NWS

Home | Current Version | Previous Version | Text Only | Print | Product List | Glossary On
Versions: 1 2 3 4 5 6 7 8 9 10 11 12 13 14 15 16
446
FTUS42 TJSJ 281141
TAFJBQ
TAF
TJBQ 281141Z 2812/2912 VRB06KT P6SM VCSH FEW030 SCT040
     FM281300 31007KT P6SM -SHRA FEW025 FEW050
     FM281630 34010KT P6SM VCTS SCT025CB BKN050
     FM282300 VRB06KT P6SM SCT060=

USA.gov is the U.S. government's official web portal to all federal, state and local government web resources and services.